Latest METARs, TAFs and NOTAMs for MMTO


---------------------------------------------------------------------------
	(OBSERVATIONS)
MMTO 240746Z 00000KT 6SM  SKC 04/01 A3032 RMK HZY=
MMTO 240646Z 00000KT 6SM  SKC 05/02 A3032 RMK HZY=
---------------------------------------------------------------------------
	(TERMINAL AREA FORECAST)
MMTO 240425Z 2406/2512 00000KT 6SM HZ SKC TX21/2421Z
    TN00/2412Z
    TEMPO 2412/2415 4SM BR SCT015
    FM241800 20008KT P6SM SCT015 SCT080
    BECMG 2505/2507 05004KT=
---------------------------------------------------------------------------
	(NOTAMS)


MMTO A0020/19 TWR LIGHTS GUN U/S. 01 JAN 20:02 2019 UNTIL 31
    DEC 23:59 2019. CREATED: 01 JAN 22:32 2019

MMTO A0149/19 RWY 15/33 CLSD. 1700/1800 DAYS 15, 22, AND 29 JAN
    1700/1800 DAYS 5, 12 , 19 AND 26 FEB, 10 JAN 17:00 2019 UNTIL
    26 FEB 18:00 2019. CREATED: 10 JAN 01:17 2019

MMTO A0290/19 RWY 15/33 CLSD. 0600/1200 DLY, 26 JAN 06:00 2019
    UNTIL 28 JAN 12:00 2019. CREATED: 18 JAN 16:37 2019

---------------------------------------------------------------------------